Mobridge Municipal Airport Mobridge US
ICAO: KMBG
IATA: MBG
Category: Medium
Scheduled Services: No

Elevation: 1716 ft
TransAlt. 18000 ft.

Airport Communications:
ASOS:121.425
HURON RDO:122.35
CTAF/UNICOM:122.8

KMBG Zoom In..

If you have problems with the map follow the link
https://www.worldairports.se/pages/airport.php?
ICAO=KMBG

Runways:

(A) RW 12 length 4410 ft width 75 ft
---- / hdg 118

(B) RW 17 length 2399 ft width 250 ft
---- / hdg 171

(C) RW 30 length 4410 ft width 75 ft
---- / hdg 298

(D) RW 35 length 2399 ft width 250 ft
---- / hdg 351

Location; KMBG
Day. 14 / Time. 10.52 Zulu
* Altimeter: 30.12
* Temperature: 00° c. 32°f.
* Wind from: 140° Speed 08 kn.
Dewpoint: -02° c.
Visibility: 10 Statute Miles.
Clouds: Clear (automated report).

KMBG 141052Z AUTO 14008KT 10SM CLR 00/M02 A3012 RMK AO2 SLP217 T00001022


Wind From 140°
Speed 08 kn.

 
 
jpsmedia.com for Web Design worldairports.se 2018   terms of use